Latest Weather Observations for Toowoomba

IDQ60901

Issued at 4:51 am EST Tuesday 24 October 2017 (issued every 10 minutes, with the page automatically refreshed every 10 minutes)

About weather observations | Map of Brisbane area stations | Latest observations for Brisbane area | Other Formats
Station Details ID: 041529 Name: TOOWOOMBA AIRPORT Lat: -27.54 Lon: 151.91 Height: 640.9 m
Data from the previous 72 hours. | See also: Recent months at Toowoomba
Date/Time
EST
Temp
°C
App
Temp
°C
Dew
Point
°C
Rel
Hum
%
Delta-T
°C
Wind Press
QNH
hPa
Press
MSL
hPa
Rain since
9am
mm
Dir  Spd
km/h
Gust
km/h
Spd
kts
Gust
kts
24/04:30am 11.3 7.7 9.7 90 0.8 ESE 19 22 10 12 1021.3 1018.9 11.8
24/04:00am 11.6 8.0 9.7 88 1.0 E 19 22 10 12 1021.2 1018.8 11.8
24/03:57am 11.6 8.0 9.7 88 1.0 E 19 22 10 12 1021.2 1018.8 11.8
24/03:30am 11.9 9.0 9.6 86 1.2 E 15 19 8 10 1021.1 1018.7 11.8
24/03:15am 11.9 8.7 9.8 87 1.1 E 17 20 9 11 1020.9 1018.5 11.8
24/03:00am 11.2 7.9 9.5 89 0.9 E 17 22 9 12 1020.7 1018.3 11.8
24/02:30am 11.3 7.5 9.7 90 0.8 ESE 20 24 11 13 1020.5 1018.1 11.8
24/02:00am 11.4 8.1 9.7 89 0.9 E 17 19 9 10 1020.5 1018.1 11.8
24/01:30am 11.2 8.0 9.8 91 0.7 E 17 19 9 10 1020.9 1018.5 11.8
24/01:00am 11.4 8.1 9.7 89 0.9 ENE 17 20 9 11 1021.0 1018.6 11.8
24/12:30am 11.2 7.3 9.6 90 0.8 E 20 24 11 13 1021.4 1019.0 11.8
24/12:00am 11.6 7.7 9.3 86 1.2 E 20 24 11 13 1021.2 1018.8 11.8
 
Date/Time
EST
Temp
°C
App
Temp
°C
Dew
Point
°C
Rel
Hum
%
Delta-T
°C
Wind Press
QNH
hPa
Press
MSL
hPa
Rain since
9am
mm
Dir  Spd
km/h
Gust
km/h
Spd
kts
Gust
kts
23/11:30pm 12.0 8.1 9.4 84 1.4 ENE 20 26 11 14 1021.5 1019.2 11.8
23/11:00pm 11.9 7.3 9.8 87 1.1 ENE 24 30 13 16 1021.3 1018.9 11.8
23/10:30pm 12.0 8.2 9.7 86 1.2 E 20 24 11 13 1021.0 1018.6 11.8
23/10:00pm 12.1 8.4 10.0 87 1.1 E 20 28 11 15 1020.7 1018.3 11.8
23/09:30pm 12.1 7.6 10.2 88 1.0 E 24 30 13 16 1020.4 1018.0 11.8
23/09:00pm 12.1 7.6 10.0 87 1.1 E 24 32 13 17 1020.6 1018.2 11.8
23/08:30pm 12.2 7.2 9.6 84 1.4 E 26 33 14 18 1020.5 1018.1 11.8
23/08:00pm 12.6 7.9 10.5 87 1.1 E 26 32 14 17 1020.5 1018.1 11.8
23/07:30pm 12.9 8.6 10.6 86 1.2 E 24 30 13 16 1019.9 1017.5 11.8
23/07:00pm 13.5 8.9 11.0 85 1.4 E 26 33 14 18 1019.8 1017.4 11.8
23/06:30pm 13.7 9.9 9.7 77 2.1 E 20 28 11 15 1019.3 1016.9 11.8
23/06:00pm 13.8 10.4 11.1 84 1.5 E 20 26 11 14 1019.0 1016.6 11.8
23/05:30pm 14.6 10.2 11.6 82 1.7 E 26 32 14 17 1018.2 1015.8 11.8
23/05:00pm 15.6 11.4 11.2 75 2.4 E 24 30 13 16 1017.6 1015.2 11.8
23/04:30pm 16.2 11.5 9.4 64 3.6 E 24 28 13 15 1017.1 1014.6 11.8
23/04:00pm 16.8 12.5 8.0 56 4.6 E 20 26 11 14 1017.0 1014.5 11.8
23/03:30pm 17.1 14.2 9.5 61 4.1 ENE 15 20 8 11 1017.4 1015.0 11.8
23/03:00pm 16.6 13.9 12.9 79 2.1 ENE 19 22 10 12 1017.4 1015.0 11.8
23/02:30pm 14.7 12.3 11.5 81 1.8 ENE 15 19 8 10 1017.5 1015.1 11.8
23/02:00pm 14.9 12.1 11.5 80 1.9 E 17 24 9 13 1017.0 1014.5 11.6
23/01:30pm 15.7 12.4 12.8 83 1.7 ENE 22 28 12 15 1017.3 1014.8 11.4
23/01:00pm 16.1 12.7 13.6 85 1.4 E 24 33 13 18 1016.7 1014.3 11.4
23/12:30pm 14.9 12.8 14.7 99 0.1 E 19 28 10 15 1016.6 1014.2 11.4
23/12:03pm 14.7 11.4 14.1 96 0.3 ESE 24 33 13 18 1017.4 1015.0 11.2
23/12:00pm 14.7 11.5 14.2 97 0.3 SE 24 33 13 18 1017.3 1014.8 11.0
23/11:45am 13.3 10.8 12.2 93 0.6 ESE 17 20 9 11 1017.6 1015.2 10.6
23/11:44am 13.3 10.7 12.0 92 0.7 ESE 17 20 9 11 1017.6 1015.2 10.4
23/11:30am 11.8 9.7 11.3 97 0.3 S 13 26 7 14 1018.1 1015.7 9.2
23/11:28am 11.7 8.9 11.2 97 0.3 SSW 17 39 9 21 1018.0 1015.6 9.0
23/11:18am 13.4 8.3 12.0 91 0.8 SW 30 59 16 32 1018.1 1015.7 1.6
23/11:17am 13.5 8.8 11.9 90 0.9 SW 28 57 15 31 1018.2 1015.8 1.0
23/11:00am 17.3 13.7 12.0 71 3.0 ESE 22 28 12 15 1017.7 1015.3 0.0
23/10:30am 19.2 16.0 13.2 68 3.5 ENE 22 26 12 14 1017.6 1015.2 0.0
23/10:00am 18.1 15.4 13.0 72 2.9 ENE 19 22 10 12 1018.0 1015.6 0.0
23/09:30am 17.0 14.4 13.3 79 2.1 E 19 24 10 13 1018.4 1016.0 0.0
23/09:00am 16.3 13.6 13.6 84 1.6 E 20 26 11 14 1018.6 1016.1 0.6
23/08:32am 15.6 12.9 12.9 84 1.5 ENE 19 24 10 13 1018.4 1016.0 0.6
23/08:30am 15.7 13.1 13.2 85 1.4 ENE 19 24 10 13 1018.3 1015.9 0.6
23/08:00am 14.7 12.0 13.4 92 0.7 E 20 26 11 14 1018.0 1015.6 0.6
23/07:50am 14.3 11.8 13.5 95 0.5 ENE 19 26 10 14 1017.9 1015.5 0.6
23/07:30am 14.2 11.7 13.4 95 0.5 E 19 22 10 12 1017.7 1015.3 0.6
23/07:00am 13.8 12.1 13.6 99 0.1 E 15 19 8 10 1017.5 1015.1 0.6
23/06:36am 13.1 11.2 12.9 99 0.1 ENE 15 19 8 10 1017.1 1014.6 0.6
23/06:30am 13.1 11.2 12.9 99 0.1 ENE 15 20 8 11 1017.1 1014.6 0.6
23/06:00am 13.0 10.6 12.8 99 0.1 ENE 17 22 9 12 1016.6 1014.2 0.6
23/05:30am 12.8 10.4 12.6 99 0.1 ENE 17 22 9 12 1016.2 1013.8 0.6
23/05:05am 12.9 10.1 12.7 99 0.1 ENE 19 24 10 13 1016.0 1013.6 0.6
23/05:00am 12.9 10.1 12.7 99 0.1 ENE 19 24 10 13 1015.9 1013.4 0.6
23/04:35am 12.8 10.8 12.6 99 0.1 ENE 15 19 8 10 1015.9 1013.4 0.6
23/04:30am 12.9 10.9 12.7 99 0.1 ENE 15 20 8 11 1015.8 1013.3 0.6
23/04:15am 12.9 10.9 12.7 99 0.1 E 15 19 8 10 1015.8 1013.3 0.6
23/04:12am 12.8 11.1 12.6 99 0.1 E 13 19 7 10 1015.7 1013.2 0.6
23/04:00am 12.8 10.8 12.6 99 0.1 E 15 17 8 9 1015.7 1013.2 0.6
23/03:39am 12.8 11.1 12.6 99 0.1 E 13 17 7 9 1015.6 1013.1 0.6
23/03:30am 12.8 10.4 12.6 99 0.1 E 17 20 9 11 1015.7 1013.2 0.6
23/03:00am 12.8 10.8 12.6 99 0.1 E 15 20 8 11 1015.6 1013.1 0.6
23/02:55am 12.9 10.9 12.7 99 0.1 E 15 20 8 11 1015.6 1013.1 0.6
23/02:46am 12.8 10.4 12.6 99 0.1 E 17 20 9 11 1015.6 1013.1 0.6
23/02:30am 12.8 10.4 12.6 99 0.1 ENE 17 22 9 12 1015.5 1013.0 0.6
23/02:00am 13.2 10.9 13.0 99 0.1 ENE 17 20 9 11 1015.6 1013.1 0.6
23/01:30am 13.4 11.1 13.1 98 0.2 ENE 17 20 9 11 1015.7 1013.2 0.6
23/01:00am 13.4 11.6 13.2 99 0.1 ESE 15 19 8 10 1016.5 1014.1 0.6
23/12:47am 13.4 11.5 12.9 97 0.3 ESE 15 17 8 9 1016.9 1014.4 0.4
23/12:34am 13.7 12.1 12.8 94 0.5 SSW 13 19 7 10 1017.1 1014.6 0.0
23/12:30am 13.8 12.2 12.7 93 0.6 SSW 13 19 7 10 1017.2 1014.7 0.0
23/12:00am 13.7 9.9 12.4 92 0.7 E 24 30 13 16 1016.3 1013.9 0.0
 
Date/Time
EST
Temp
°C
App
Temp
°C
Dew
Point
°C
Rel
Hum
%
Delta-T
°C
Wind Press
QNH
hPa
Press
MSL
hPa
Rain since
9am
mm
Dir  Spd
km/h
Gust
km/h
Spd
kts
Gust
kts
22/11:30pm 13.7 10.7 12.4 92 0.7 E 20 26 11 14 1016.5 1014.1 0.0
22/11:00pm 13.6 9.8 12.5 93 0.6 E 24 30 13 16 1016.6 1014.2 0.0
22/10:30pm 13.5 10.1 12.4 93 0.6 E 22 28 12 15 1016.6 1014.2 0.0
22/10:00pm 13.8 10.0 12.5 92 0.7 ESE 24 30 13 16 1016.6 1014.2 0.0
22/09:30pm 14.1 10.6 12.3 89 1.0 ESE 22 30 12 16 1016.6 1014.2 0.0
22/09:00pm 14.4 10.5 12.1 86 1.3 E 24 32 13 17 1016.5 1014.1 0.0
22/08:30pm 14.7 11.5 10.1 74 2.5 E 17 26 9 14 1016.3 1013.9 0.0
22/08:00pm 16.1 14.2 7.6 57 4.4 E 7 9 4 5 1016.0 1013.6 0.0
22/07:30pm 16.5 14.6 7.4 55 4.7 ESE 7 7 4 4 1015.6 1013.1 0.0
22/07:00pm 17.6 15.5 6.8 49 5.6 SSE 7 9 4 5 1015.1 1012.7 0.0
22/06:30pm 17.7 15.6 6.6 48 5.7 S 7 11 4 6 1014.8 1012.4 0.0
22/06:00pm 18.1 15.7 6.9 48 5.8 S 9 13 5 7 1014.6 1012.2 0.0
22/05:30pm 19.2 15.6 6.7 44 6.5 SSW 15 20 8 11 1014.3 1011.8 0.0
22/05:00pm 19.4 15.7 6.2 42 6.8 SSW 15 24 8 13 1014.0 1011.5 0.0
22/04:30pm 20.3 16.3 6.6 41 7.1 SW 17 28 9 15 1013.8 1011.3 0.0
22/04:00pm 19.3 15.6 6.1 42 6.8 SW 15 24 8 13 1013.7 1011.2 0.0
22/03:30pm 21.0 16.5 6.2 38 7.7 WSW 19 26 10 14 1013.6 1011.1 0.0
22/03:00pm 19.3 14.8 7.1 45 6.4 SW 20 26 11 14 1013.7 1011.2 0.0
22/02:30pm 20.6 15.9 7.6 43 6.9 WSW 22 28 12 15 1013.8 1011.3 0.0
22/02:00pm 20.7 16.9 9.0 47 6.4 WSW 19 28 10 15 1013.9 1011.4 0.0
22/01:30pm 20.1 16.9 8.4 47 6.3 SSW 15 28 8 15 1014.2 1011.7 0.0
22/01:00pm 20.5 17.3 10.0 51 5.8 WSW 17 26 9 14 1014.4 1011.9 0.0
22/12:30pm 19.4 16.8 9.3 52 5.5 WSW 13 20 7 11 1014.7 1012.3 0.0
22/12:00pm 19.1 15.5 6.9 45 6.3 SW 15 24 8 13 1015.0 1012.6 0.0
22/11:30am 18.7 14.6 6.2 44 6.4 WSW 17 26 9 14 1015.5 1013.0 0.0
22/11:00am 18.5 14.2 7.0 47 6.0 SW 19 28 10 15 1015.7 1013.2 0.0
22/10:30am 18.3 15.0 9.6 57 4.7 WSW 17 24 9 13 1015.7 1013.2 0.0
22/10:00am 17.6 14.9 10.5 63 3.9 WSW 15 24 8 13 1015.9 1013.4 0.0
22/09:30am 16.7 15.3 10.8 68 3.3 SSW 9 17 5 9 1015.9 1013.4 0.0
22/09:00am 15.9 14.9 10.9 72 2.8 WNW 7 13 4 7 1016.2 1013.8 17.0
22/08:30am 15.3 13.8 10.7 74 2.5 W 9 13 5 7 1016.3 1013.9 17.0
22/08:00am 14.8 14.4 11.2 79 2.0 NW 4 11 2 6 1016.3 1013.9 17.0
22/07:30am 13.9 13.5 11.1 83 1.5 NNE 4 9 2 5 1016.1 1013.7 17.0
22/07:00am 12.7 12.4 11.6 93 0.6 S 4 7 2 4 1015.7 1013.2 17.0
22/06:30am 11.8 12.1 11.0 95 0.4 CALM 0 6 0 3 1015.7 1013.2 17.0
22/06:00am 11.3 11.6 11.0 98 0.2 CALM 0 0 0 0 1015.7 1013.2 17.0
22/05:30am 11.1 10.1 10.9 99 0.1 SW 7 9 4 5 1015.5 1013.0 17.0
22/05:07am 11.1 9.7 10.9 99 0.1 SW 9 13 5 7 1015.3 1012.8 17.0
22/05:00am 11.1 9.3 10.9 99 0.1 SW 11 13 6 7 1015.3 1012.8 17.0
22/04:46am 11.4 9.7 11.2 99 0.1 WSW 11 15 6 8 1015.3 1012.8 17.0
22/04:30am 11.6 10.3 11.4 99 0.1 WSW 9 11 5 6 1015.1 1012.7 17.0
22/04:00am 11.7 10.8 11.5 99 0.1 W 7 9 4 5 1015.0 1012.6 17.0
22/03:30am 11.9 10.7 11.7 99 0.1 WSW 9 11 5 6 1015.0 1012.6 17.0
22/03:26am 11.9 11.1 11.7 99 0.1 WSW 7 9 4 5 1015.0 1012.6 17.0
22/03:00am 11.9 11.1 11.7 99 0.1 WSW 7 9 4 5 1015.1 1012.7 17.0
22/02:52am 12.0 10.9 11.8 99 0.1 WSW 9 11 5 6 1015.1 1012.7 17.0
22/02:47am 12.0 10.9 11.8 99 0.1 SSW 9 11 5 6 1015.3 1012.8 17.0
22/02:30am 12.1 11.4 11.9 99 0.1 SSE 7 9 4 5 1015.4 1012.9 17.0
22/02:29am 12.1 11.4 11.9 99 0.1 SSE 7 9 4 5 1015.4 1012.9 17.0
22/02:14am 12.0 12.6 11.8 99 0.1 CALM 0 0 0 0 1015.5 1013.0 17.0
22/02:00am 12.0 12.2 11.8 99 0.1 SSE 2 7 1 4 1015.6 1013.1 17.0
22/01:51am 12.1 11.6 11.9 99 0.1 SSE 6 7 3 4 1015.7 1013.2 17.0
22/01:47am 12.1 11.9 11.9 99 0.1 SSE 4 7 2 4 1015.8 1013.3 17.0
22/01:30am 12.1 11.4 11.9 99 0.1 SSE 7 9 4 5 1015.9 1013.4 17.0
22/01:00am 12.0 11.2 11.8 99 0.1 SSE 7 9 4 5 1016.1 1013.7 16.8
22/12:57am 12.0 11.2 11.8 99 0.1 SSE 7 9 4 5 1016.2 1013.8 16.8
22/12:54am 11.9 11.1 11.7 99 0.1 SSE 7 9 4 5 1016.2 1013.8 16.8
22/12:45am 11.9 11.1 11.7 99 0.1 SSE 7 9 4 5 1016.4 1014.0 16.8
22/12:30am 11.8 11.0 11.6 99 0.1 SSE 7 9 4 5 1016.5 1014.1 16.8
22/12:03am 11.7 10.5 11.5 99 0.1 SE 9 11 5 6 1016.7 1014.3 16.8
22/12:00am 11.7 10.5 11.5 99 0.1 SE 9 11 5 6 1016.7 1014.3 16.8
 
Date/Time
EST
Temp
°C
App
Temp
°C
Dew
Point
°C
Rel
Hum
%
Delta-T
°C
Wind Press
QNH
hPa
Press
MSL
hPa
Rain since
9am
mm
Dir  Spd
km/h
Gust
km/h
Spd
kts
Gust
kts
21/11:34pm 11.7 10.1 11.5 99 0.1 E 11 13 6 7 1017.1 1014.6 16.8
21/11:30pm 11.7 10.1 11.5 99 0.1 ESE 11 13 6 7 1017.1 1014.6 16.8
21/11:17pm 11.8 10.2 11.6 99 0.1 ESE 11 15 6 8 1017.2 1014.7 16.8
21/11:12pm 11.7 9.7 11.5 99 0.1 E 13 17 7 9 1017.1 1014.6 16.8
21/11:10pm 11.7 9.7 11.5 99 0.1 E 13 17 7 9 1017.0 1014.5 16.8
21/11:00pm 11.9 9.6 11.7 99 0.1 E 15 17 8 9 1016.7 1014.3 16.8
21/10:51pm 12.0 9.7 11.8 99 0.1 E 15 19 8 10 1016.9 1014.4 16.8
21/10:40pm 12.1 9.5 11.9 99 0.1 ESE 17 20 9 11 1017.1 1014.6 16.8
21/10:30pm 12.1 9.8 11.9 99 0.1 ESE 15 20 8 11 1017.3 1014.8 16.8
21/10:00pm 12.1 9.5 11.9 99 0.1 E 17 20 9 11 1017.3 1014.8 16.8
21/09:30pm 12.2 9.2 12.0 99 0.1 E 19 24 10 13 1017.3 1014.8 16.8
21/09:00pm 12.4 10.6 12.2 99 0.1 ENE 13 19 7 10 1017.4 1015.0 16.8
21/08:47pm 12.4 11.0 12.2 99 0.1 ENE 11 13 6 7 1017.6 1015.2 16.8
21/08:30pm 12.6 11.6 12.4 99 0.1 ENE 9 13 5 7 1017.6 1015.2 16.8
21/08:00pm 12.6 12.0 12.4 99 0.1 SE 7 9 4 5 1017.6 1015.2 16.8
21/07:30pm 12.5 11.9 12.3 99 0.1 E 7 11 4 6 1017.2 1014.7 16.8
21/07:12pm 12.5 11.5 12.3 99 0.1 ENE 9 11 5 6 1017.0 1014.5 16.8
21/07:00pm 12.5 11.5 12.3 99 0.1 NE 9 11 5 6 1016.9 1014.4 16.8
21/06:42pm 12.6 11.6 12.4 99 0.1 ENE 9 11 5 6 1016.9 1014.4 16.8
21/06:38pm 12.6 11.6 12.4 99 0.1 E 9 13 5 7 1017.0 1014.5 16.8
21/06:30pm 12.6 11.3 12.4 99 0.1 E 11 13 6 7 1017.0 1014.5 16.8
21/06:00pm 12.6 10.5 12.4 99 0.1 E 15 19 8 10 1016.9 1014.4 16.8
21/05:30pm 12.5 9.4 12.3 99 0.1 ESE 20 26 11 14 1016.5 1014.1 16.8
21/05:00pm 13.0 9.3 12.8 99 0.1 E 24 30 13 16 1015.9 1013.4 16.8
21/04:30pm 13.0 9.3 12.8 99 0.1 E 24 32 13 17 1015.8 1013.3 16.8
21/04:07pm 13.8 10.4 13.6 99 0.1 E 24 33 13 18 1015.5 1013.0 16.8
21/04:01pm 13.6 9.4 13.4 99 0.1 E 28 35 15 19 1015.5 1013.0 16.8
21/04:00pm 13.5 9.2 13.3 99 0.1 E 28 35 15 19 1015.5 1013.0 16.8
21/03:30pm 13.2 8.4 13.0 99 0.1 E 30 37 16 20 1015.3 1012.8 16.8
21/03:00pm 13.2 8.0 12.9 98 0.2 ESE 32 37 17 20 1015.7 1013.2 16.8
21/02:39pm 13.5 9.2 13.3 99 0.1 ESE 28 39 15 21 1015.5 1013.0 16.6
21/02:30pm 13.4 10.2 13.2 99 0.1 SE 22 33 12 18 1016.3 1013.9 16.6
21/02:16pm 13.4 9.8 13.2 99 0.1 SSE 24 35 13 19 1017.4 1015.0 16.0
21/02:00pm 13.6 11.1 13.4 99 0.1 SSE 19 32 10 17 1017.3 1014.8 15.2
21/01:30pm 13.8 12.1 13.6 99 0.1 SE 15 20 8 11 1017.1 1014.6 13.2
21/01:00pm 13.7 11.0 13.5 99 0.1 ESE 20 28 11 15 1017.1 1014.6 11.4
21/12:59pm 13.7 10.6 13.5 99 0.1 ESE 22 30 12 16 1017.1 1014.6 11.4
21/12:30pm 13.8 10.0 13.6 99 0.1 ESE 26 33 14 18 1017.3 1014.8 9.2
21/12:04pm 13.9 9.8 13.7 99 0.1 E 28 35 15 19 1017.3 1014.8 8.2
21/12:00pm 13.9 9.8 13.7 99 0.1 E 28 35 15 19 1017.3 1014.8 8.0
21/11:46am 14.0 10.6 13.8 99 0.1 ESE 24 32 13 17 1017.4 1015.0 7.0
21/11:30am 13.9 10.1 13.7 99 0.1 E 26 33 14 18 1017.4 1015.0 5.4
21/11:08am 14.2 9.8 14.0 99 0.1 E 30 37 16 20 1017.5 1015.1 3.6
21/11:00am 14.2 9.8 14.0 99 0.1 E 30 37 16 20 1017.6 1015.2 3.6
21/10:30am 14.9 12.8 14.7 99 0.1 E 19 24 10 13 1017.8 1015.4 3.2
21/10:22am 14.8 12.5 14.6 99 0.1 E 20 26 11 14 1018.0 1015.6 3.0
21/10:00am 14.7 12.3 14.5 99 0.1 E 20 28 11 15 1018.3 1015.9 1.8
21/09:57am 15.0 12.9 14.8 99 0.1 ENE 19 26 10 14 1018.3 1015.9 1.6
21/09:30am 15.2 14.4 15.0 99 0.1 ENE 13 17 7 9 1018.4 1016.0 0.8
21/09:00am 15.2 14.7 15.0 99 0.1 E 11 13 6 7 1018.7 1016.2 8.0
21/08:30am 15.1 15.0 14.9 99 0.1 E 9 13 5 7 1018.7 1016.2 7.6
21/08:00am 15.1 15.0 14.9 99 0.1 E 9 13 5 7 1018.4 1016.0 7.4
21/07:30am 14.7 14.8 14.5 99 0.1 SSE 7 9 4 5 1018.8 1016.4 3.8
21/07:00am 14.7 14.4 14.5 99 0.1 SE 9 11 5 6 1018.2 1015.8 3.8
21/06:30am 14.7 12.9 14.5 99 0.1 ENE 17 20 9 11 1017.2 1014.7 3.6
21/06:13am 14.9 12.8 14.7 99 0.1 ENE 19 24 10 13 1016.9 1014.4 3.0
21/06:00am 15.4 15.0 15.2 99 0.1 NE 11 17 6 9 1017.2 1014.7 2.4
21/05:38am 15.4 15.4 15.2 99 0.1 NNW 9 11 5 6 1017.6 1015.2 2.4
21/05:30am 15.5 15.5 15.3 99 0.1 N 9 15 5 8 1017.6 1015.2 2.2
21/05:19am 15.5 15.1 15.3 99 0.1 NNW 11 17 6 9 1017.8 1015.4 1.8
21/05:00am 15.7 15.0 15.5 99 0.1 NNW 13 19 7 10 1017.8 1015.4 0.8

Latest Capital City Observations: Canberra | Sydney | Melbourne | Brisbane | Adelaide | Perth | Hobart | Darwin

Other Formats:

Comma delimited format used in spreadsheet applications
http://www.bom.gov.au/fwo/IDQ60901/IDQ60901.95551.axf

JavaScript Object Notation format (JSON) in row-major order
http://www.bom.gov.au/fwo/IDQ60901/IDQ60901.95551.json